메인 페이지
METAR-TAF:

METAR-TAF

공항 :

평양 순안 국제공항

평양직할, 북한

위도: 39-02N, 경도: 125-47E, 고도: 36m

METAR: 누락

시각: 13:33 (05:03 UTC)

예보

예보는 7 시간 33분 전, 21:30시(UTC)에 발표되었습니다.
예보 대상 시간: 15일 00시부터 15일 24시까지 (UTC)
서남서6kt
시정 10km 이상
1500m 미만 상공 구름 및 적란운 없음
전환 중
15일 02시부터 15일 04시까지 (UTC)
시정: 7000m
고도 3000ft 상공 구름 많음
일시적
15일 14시부터 15일 22시까지 (UTC)
시정: 1000m
고도 1000ft 상공 흐림
약한비, 박무

TAF: ZKPY 142130Z 1500/1524 24003MPS CAVOK TX14/1506Z TN03/1521Z BECMG 1502/1504 7000 BKN030 TEMPO 1514/1522 1000 -RABR OVC010

4,000개 이상의 공항 관측 자료 및 예보 (METAR 및 TAF 보고).

지도상에서 검색 가능한 기상관측소가 노란 점과 빨간 점으로 표시되어 있습니다.

기상관측소 명을 보려면 표시 위로 마우스를 이동하세요.

날씨 관측과 예보를 보려면 클릭하세요.

지도 변경 : 확대하려면 엑스 표시가 있는 녹색 버튼, 축소하려면 빼기 표시가 있는 녹색 버튼, 다음 페이지의 지도를 보려면 녹색 화살표를 클릭하세요.


METAR-TAF: